Bloody Springs, Mississippi
Current Conditions -  °F | °C
As of 3:53 PM on Saturday 20 Dec 2014 (Local Time) from KTUP Reporting Station
Clear Clear  
Wind Chill: 53°   Ceiling: Unl
Heat Index: 53°   Visibility: 10mi
Dew Point: 34°   Wind: 9mph
Humidity: 48%   Direction: 30°NNE
Pressure: 30.19"   Gusts: NA
Location:  34.5141°N, 88.2677°W
Report Text: KTUP 202153Z 03008KT 10SM CLR 12/01 A3019 RMK AO2 SLP224 T01170011
Loading
Personal Weather Stations






























Interactive Weather Map New forecast layout! Learn more

10-Day Weather Forecast

Advertisements
Track Severe Weather on mobile